sensor_id;sensor_type;location;lat;lon;timestamp;temperature;humidity
39919;DHT22;25589;51.552;13.424;2023-05-10T00:01:56;14.30;83.70
39919;DHT22;25589;51.552;13.424;2023-05-10T00:04:21;14.30;84.10
39919;DHT22;25589;51.552;13.424;2023-05-10T00:06:47;14.30;84.50
39919;DHT22;25589;51.552;13.424;2023-05-10T00:09:13;14.40;85.10
39919;DHT22;25589;51.552;13.424;2023-05-10T00:11:38;14.10;85.70
39919;DHT22;25589;51.552;13.424;2023-05-10T00:14:04;14.50;86.40
39919;DHT22;25589;51.552;13.424;2023-05-10T00:16:30;13.80;86.90
39919;DHT22;25589;51.552;13.424;2023-05-10T00:18:55;13.90;88.10
39919;DHT22;25589;51.552;13.424;2023-05-10T00:21:21;13.90;88.70
39919;DHT22;25589;51.552;13.424;2023-05-10T00:23:46;13.90;89.30
39919;DHT22;25589;51.552;13.424;2023-05-10T00:26:12;13.90;89.80
39919;DHT22;25589;51.552;13.424;2023-05-10T00:28:39;13.90;90.20
39919;DHT22;25589;51.552;13.424;2023-05-10T00:31:05;13.80;90.50
39919;DHT22;25589;51.552;13.424;2023-05-10T00:33:30;13.80;90.80
39919;DHT22;25589;51.552;13.424;2023-05-10T00:35:56;13.60;91.30
39919;DHT22;25589;51.552;13.424;2023-05-10T00:38:21;13.60;91.70
39919;DHT22;25589;51.552;13.424;2023-05-10T00:40:47;13.10;91.80
39919;DHT22;25589;51.552;13.424;2023-05-10T00:43:21;14.20;92.40
39919;DHT22;25589;51.552;13.424;2023-05-10T00:45:47;13.40;92.50
39919;DHT22;25589;51.552;13.424;2023-05-10T00:48:13;13.70;92.90
39919;DHT22;25589;51.552;13.424;2023-05-10T00:50:39;13.40;93.30
39919;DHT22;25589;51.552;13.424;2023-05-10T00:53:05;13.20;93.60
39919;DHT22;25589;51.552;13.424;2023-05-10T00:55:31;13.30;94.00
39919;DHT22;25589;51.552;13.424;2023-05-10T00:57:57;13.30;94.50
39919;DHT22;25589;51.552;13.424;2023-05-10T01:00:23;13.20;94.90
39919;DHT22;25589;51.552;13.424;2023-05-10T01:02:50;13.10;95.30
39919;DHT22;25589;51.552;13.424;2023-05-10T01:05:15;13.20;95.60
39919;DHT22;25589;51.552;13.424;2023-05-10T01:07:41;12.60;95.80
39919;DHT22;25589;51.552;13.424;2023-05-10T01:10:07;13.10;96.40
39919;DHT22;25589;51.552;13.424;2023-05-10T01:12:39;12.80;96.50
39919;DHT22;25589;51.552;13.424;2023-05-10T01:15:06;13.10;96.80
39919;DHT22;25589;51.552;13.424;2023-05-10T01:17:33;13.00;97.40
39919;DHT22;25589;51.552;13.424;2023-05-10T01:20:00;12.70;97.60
39919;DHT22;25589;51.552;13.424;2023-05-10T01:23:07;12.90;98.10
39919;DHT22;25589;51.552;13.424;2023-05-10T01:28:39;12.80;98.90
39919;DHT22;25589;51.552;13.424;2023-05-10T01:31:17;12.70;99.00
39919;DHT22;25589;51.552;13.424;2023-05-10T01:33:49;12.80;99.30
39919;DHT22;25589;51.552;13.424;2023-05-10T01:36:40;12.70;99.90
39919;DHT22;25589;51.552;13.424;2023-05-10T01:39:23;12.70;99.90
39919;DHT22;25589;51.552;13.424;2023-05-10T01:44:37;12.80;99.90
39919;DHT22;25589;51.552;13.424;2023-05-10T01:47:15;12.70;99.90
39919;DHT22;25589;51.552;13.424;2023-05-10T01:49:49;12.20;99.90
39919;DHT22;25589;51.552;13.424;2023-05-10T01:52:17;12.00;99.90
39919;DHT22;25589;51.552;13.424;2023-05-10T01:54:58;12.60;99.90
39919;DHT22;25589;51.552;13.424;2023-05-10T01:57:29;11.90;99.90
39919;DHT22;25589;51.552;13.424;2023-05-10T01:59:57;12.90;99.90
39919;DHT22;25589;51.552;13.424;2023-05-10T02:02:25;12.40;99.90
39919;DHT22;25589;51.552;13.424;2023-05-10T02:04:53;12.40;99.90
39919;DHT22;25589;51.552;13.424;2023-05-10T02:07:21;12.40;99.90
39919;DHT22;25589;51.552;13.424;2023-05-10T02:09:47;12.40;99.90
39919;DHT22;25589;51.552;13.424;2023-05-10T02:12:14;12.40;99.90
39919;DHT22;25589;51.552;13.424;2023-05-10T02:14:41;12.40;99.90
39919;DHT22;25589;51.552;13.424;2023-05-10T02:17:08;12.00;99.90
39919;DHT22;25589;51.552;13.424;2023-05-10T02:19:36;12.20;99.90
39919;DHT22;25589;51.552;13.424;2023-05-10T02:22:03;12.20;99.90
39919;DHT22;25589;51.552;13.424;2023-05-10T02:24:29;12.20;99.90
39919;DHT22;25589;51.552;13.424;2023-05-10T02:26:56;12.10;99.90
39919;DHT22;25589;51.552;13.424;2023-05-10T02:29:23;12.40;99.90
39919;DHT22;25589;51.552;13.424;2023-05-10T02:31:52;12.60;99.90
39919;DHT22;25589;51.552;13.424;2023-05-10T02:34:21;12.30;99.90
39919;DHT22;25589;51.552;13.424;2023-05-10T02:36:47;12.00;99.90
39919;DHT22;25589;51.552;13.424;2023-05-10T02:39:14;12.00;99.90
39919;DHT22;25589;51.552;13.424;2023-05-10T02:44:08;12.50;99.90
39919;DHT22;25589;51.552;13.424;2023-05-10T02:46:35;12.00;99.90
39919;DHT22;25589;51.552;13.424;2023-05-10T02:49:02;11.90;99.90
39919;DHT22;25589;51.552;13.424;2023-05-10T02:53:57;11.90;99.90
39919;DHT22;25589;51.552;13.424;2023-05-10T02:56:33;11.90;99.90
39919;DHT22;25589;51.552;13.424;2023-05-10T02:59:00;11.90;99.90
39919;DHT22;25589;51.552;13.424;2023-05-10T03:01:26;11.80;99.90
39919;DHT22;25589;51.552;13.424;2023-05-10T03:03:51;11.70;99.90
39919;DHT22;25589;51.552;13.424;2023-05-10T03:06:17;12.00;99.90
39919;DHT22;25589;51.552;13.424;2023-05-10T03:08:43;11.80;99.90
39919;DHT22;25589;51.552;13.424;2023-05-10T03:14:25;11.80;99.90
39919;DHT22;25589;51.552;13.424;2023-05-10T03:19:57;11.70;99.90
39919;DHT22;25589;51.552;13.424;2023-05-10T03:22:29;11.80;99.90
39919;DHT22;25589;51.552;13.424;2023-05-10T03:24:56;12.10;99.90
39919;DHT22;25589;51.552;13.424;2023-05-10T03:27:26;12.60;99.90
39919;DHT22;25589;51.552;13.424;2023-05-10T03:29:54;11.70;99.90
39919;DHT22;25589;51.552;13.424;2023-05-10T03:32:21;11.70;99.90
39919;DHT22;25589;51.552;13.424;2023-05-10T03:34:47;11.80;99.90
39919;DHT22;25589;51.552;13.424;2023-05-10T03:37:13;11.70;99.90
39919;DHT22;25589;51.552;13.424;2023-05-10T03:39:39;11.40;99.90
39919;DHT22;25589;51.552;13.424;2023-05-10T03:42:07;11.50;99.90
39919;DHT22;25589;51.552;13.424;2023-05-10T03:44:33;11.70;99.90
39919;DHT22;25589;51.552;13.424;2023-05-10T03:46:59;11.60;99.90
39919;DHT22;25589;51.552;13.424;2023-05-10T03:49:25;11.70;99.90
39919;DHT22;25589;51.552;13.424;2023-05-10T03:51:50;12.00;99.90
39919;DHT22;25589;51.552;13.424;2023-05-10T03:54:16;11.50;99.90
39919;DHT22;25589;51.552;13.424;2023-05-10T03:56:41;11.60;99.90
39919;DHT22;25589;51.552;13.424;2023-05-10T03:59:07;11.40;99.90
39919;DHT22;25589;51.552;13.424;2023-05-10T04:01:34;11.40;99.90
39919;DHT22;25589;51.552;13.424;2023-05-10T04:04:00;11.90;99.90
39919;DHT22;25589;51.552;13.424;2023-05-10T04:06:26;11.20;99.90
39919;DHT22;25589;51.552;13.424;2023-05-10T04:08:51;11.70;99.90
39919;DHT22;25589;51.552;13.424;2023-05-10T04:11:17;11.70;99.90
39919;DHT22;25589;51.552;13.424;2023-05-10T04:13:42;12.00;99.90
39919;DHT22;25589;51.552;13.424;2023-05-10T04:16:08;12.30;99.90
39919;DHT22;25589;51.552;13.424;2023-05-10T04:18:34;11.70;99.90
39919;DHT22;25589;51.552;13.424;2023-05-10T04:23:27;11.80;99.90
39919;DHT22;25589;51.552;13.424;2023-05-10T04:25:52;12.20;99.90
39919;DHT22;25589;51.552;13.424;2023-05-10T04:28:18;11.80;99.90
39919;DHT22;25589;51.552;13.424;2023-05-10T04:30:43;11.60;99.90
39919;DHT22;25589;51.552;13.424;2023-05-10T04:33:09;11.90;99.90
39919;DHT22;25589;51.552;13.424;2023-05-10T04:35:35;11.90;99.90
39919;DHT22;25589;51.552;13.424;2023-05-10T04:38:00;12.00;99.90
39919;DHT22;25589;51.552;13.424;2023-05-10T04:40:26;12.00;99.90
39919;DHT22;25589;51.552;13.424;2023-05-10T04:42:51;12.10;99.90
39919;DHT22;25589;51.552;13.424;2023-05-10T04:45:17;12.50;99.90
39919;DHT22;25589;51.552;13.424;2023-05-10T04:47:43;12.40;99.90
39919;DHT22;25589;51.552;13.424;2023-05-10T04:50:08;12.80;99.90
39919;DHT22;25589;51.552;13.424;2023-05-10T04:52:34;12.30;99.90
39919;DHT22;25589;51.552;13.424;2023-05-10T04:54:59;12.30;99.90
39919;DHT22;25589;51.552;13.424;2023-05-10T04:57:25;12.40;99.90
39919;DHT22;25589;51.552;13.424;2023-05-10T04:59:51;12.40;99.90
39919;DHT22;25589;51.552;13.424;2023-05-10T05:02:16;12.40;99.90
39919;DHT22;25589;51.552;13.424;2023-05-10T05:04:42;12.40;99.90
39919;DHT22;25589;51.552;13.424;2023-05-10T05:07:07;12.50;99.90
39919;DHT22;25589;51.552;13.424;2023-05-10T05:09:33;11.60;99.90
39919;DHT22;25589;51.552;13.424;2023-05-10T05:11:58;12.60;99.90
39919;DHT22;25589;51.552;13.424;2023-05-10T05:14:24;12.70;99.90
39919;DHT22;25589;51.552;13.424;2023-05-10T05:16:51;12.80;99.90
39919;DHT22;25589;51.552;13.424;2023-05-10T05:19:17;12.80;99.90
39919;DHT22;25589;51.552;13.424;2023-05-10T05:21:42;12.90;99.90
39919;DHT22;25589;51.552;13.424;2023-05-10T05:24:08;13.00;99.90
39919;DHT22;25589;51.552;13.424;2023-05-10T05:26:35;13.30;99.90
39919;DHT22;25589;51.552;13.424;2023-05-10T05:29:01;13.10;99.90
39919;DHT22;25589;51.552;13.424;2023-05-10T05:31:27;13.60;99.90
39919;DHT22;25589;51.552;13.424;2023-05-10T05:33:53;13.30;99.90
39919;DHT22;25589;51.552;13.424;2023-05-10T05:36:18;13.70;99.90
39919;DHT22;25589;51.552;13.424;2023-05-10T05:38:44;13.40;99.90
39919;DHT22;25589;51.552;13.424;2023-05-10T05:41:09;13.40;99.90
39919;DHT22;25589;51.552;13.424;2023-05-10T05:43:35;13.50;99.90
39919;DHT22;25589;51.552;13.424;2023-05-10T05:46:00;13.50;99.90
39919;DHT22;25589;51.552;13.424;2023-05-10T05:48:26;13.70;99.90
39919;DHT22;25589;51.552;13.424;2023-05-10T05:50:54;13.70;99.90
39919;DHT22;25589;51.552;13.424;2023-05-10T05:53:21;13.80;99.90
39919;DHT22;25589;51.552;13.424;2023-05-10T05:55:57;13.80;99.90
39919;DHT22;25589;51.552;13.424;2023-05-10T05:58:24;13.90;99.90
39919;DHT22;25589;51.552;13.424;2023-05-10T06:00:51;13.80;99.90
39919;DHT22;25589;51.552;13.424;2023-05-10T06:03:19;14.00;99.90
39919;DHT22;25589;51.552;13.424;2023-05-10T06:05:46;13.90;99.90
39919;DHT22;25589;51.552;13.424;2023-05-10T06:08:11;14.30;99.90
39919;DHT22;25589;51.552;13.424;2023-05-10T06:10:37;14.00;99.90
39919;DHT22;25589;51.552;13.424;2023-05-10T06:13:03;14.20;99.90
39919;DHT22;25589;51.552;13.424;2023-05-10T06:15:28;14.30;99.90
39919;DHT22;25589;51.552;13.424;2023-05-10T06:17:54;14.40;99.90
39919;DHT22;25589;51.552;13.424;2023-05-10T06:20:19;14.50;99.90
39919;DHT22;25589;51.552;13.424;2023-05-10T06:22:45;14.30;99.90
39919;DHT22;25589;51.552;13.424;2023-05-10T06:25:11;14.60;99.90
39919;DHT22;25589;51.552;13.424;2023-05-10T06:27:36;14.70;99.90
39919;DHT22;25589;51.552;13.424;2023-05-10T06:30:02;14.70;99.90
39919;DHT22;25589;51.552;13.424;2023-05-10T06:32:28;14.90;99.90
39919;DHT22;25589;51.552;13.424;2023-05-10T06:34:53;15.00;99.90
39919;DHT22;25589;51.552;13.424;2023-05-10T06:37:19;14.80;99.90
39919;DHT22;25589;51.552;13.424;2023-05-10T06:39:45;14.80;99.90
39919;DHT22;25589;51.552;13.424;2023-05-10T06:42:11;15.00;99.90
39919;DHT22;25589;51.552;13.424;2023-05-10T06:44:36;14.90;99.90
39919;DHT22;25589;51.552;13.424;2023-05-10T06:47:03;14.90;99.90
39919;DHT22;25589;51.552;13.424;2023-05-10T06:49:28;15.10;99.90
39919;DHT22;25589;51.552;13.424;2023-05-10T06:51:55;15.30;99.90
39919;DHT22;25589;51.552;13.424;2023-05-10T06:54:21;15.40;99.90
39919;DHT22;25589;51.552;13.424;2023-05-10T06:56:46;15.30;99.90
39919;DHT22;25589;51.552;13.424;2023-05-10T06:59:12;15.60;99.90
39919;DHT22;25589;51.552;13.424;2023-05-10T07:01:39;15.30;99.90
39919;DHT22;25589;51.552;13.424;2023-05-10T07:04:06;15.30;99.90
39919;DHT22;25589;51.552;13.424;2023-05-10T07:06:32;15.80;99.90
39919;DHT22;25589;51.552;13.424;2023-05-10T07:08:58;15.90;99.90
39919;DHT22;25589;51.552;13.424;2023-05-10T07:11:24;16.00;99.90
39919;DHT22;25589;51.552;13.424;2023-05-10T07:13:50;15.90;99.90
39919;DHT22;25589;51.552;13.424;2023-05-10T07:16:15;16.10;99.90
39919;DHT22;25589;51.552;13.424;2023-05-10T07:18:41;16.20;99.90
39919;DHT22;25589;51.552;13.424;2023-05-10T07:21:06;16.20;99.90
39919;DHT22;25589;51.552;13.424;2023-05-10T07:23:32;16.30;99.80
39919;DHT22;25589;51.552;13.424;2023-05-10T07:25:58;16.40;99.60
39919;DHT22;25589;51.552;13.424;2023-05-10T07:28:23;16.50;99.40
39919;DHT22;25589;51.552;13.424;2023-05-10T07:30:52;16.50;99.00
39919;DHT22;25589;51.552;13.424;2023-05-10T07:33:17;16.40;99.20
39919;DHT22;25589;51.552;13.424;2023-05-10T07:35:43;16.90;99.20
39919;DHT22;25589;51.552;13.424;2023-05-10T07:38:09;16.70;99.00
39919;DHT22;25589;51.552;13.424;2023-05-10T07:40:36;16.90;98.60
39919;DHT22;25589;51.552;13.424;2023-05-10T07:43:02;17.00;98.50
39919;DHT22;25589;51.552;13.424;2023-05-10T07:45:28;17.00;98.20
39919;DHT22;25589;51.552;13.424;2023-05-10T07:47:53;17.10;98.20
39919;DHT22;25589;51.552;13.424;2023-05-10T07:50:19;17.20;98.50
39919;DHT22;25589;51.552;13.424;2023-05-10T07:52:46;17.30;97.60
39919;DHT22;25589;51.552;13.424;2023-05-10T07:55:12;17.10;97.40
39919;DHT22;25589;51.552;13.424;2023-05-10T07:57:39;17.40;97.60
39919;DHT22;25589;51.552;13.424;2023-05-10T08:00:17;17.60;97.20
39919;DHT22;25589;51.552;13.424;2023-05-10T08:02:45;17.60;96.90
39919;DHT22;25589;51.552;13.424;2023-05-10T08:05:11;17.70;96.70
39919;DHT22;25589;51.552;13.424;2023-05-10T08:07:37;17.40;96.30
39919;DHT22;25589;51.552;13.424;2023-05-10T08:10:03;17.90;96.20
39919;DHT22;25589;51.552;13.424;2023-05-10T08:12:29;18.00;96.40
39919;DHT22;25589;51.552;13.424;2023-05-10T08:14:54;18.00;96.30
39919;DHT22;25589;51.552;13.424;2023-05-10T08:17:20;18.00;96.60
39919;DHT22;25589;51.552;13.424;2023-05-10T08:19:45;18.10;95.30
39919;DHT22;25589;51.552;13.424;2023-05-10T08:22:11;18.20;95.00
39919;DHT22;25589;51.552;13.424;2023-05-10T08:24:36;18.30;94.90
39919;DHT22;25589;51.552;13.424;2023-05-10T08:27:05;18.30;95.20
39919;DHT22;25589;51.552;13.424;2023-05-10T08:29:31;18.60;95.00
39919;DHT22;25589;51.552;13.424;2023-05-10T08:31:56;18.50;94.60
39919;DHT22;25589;51.552;13.424;2023-05-10T08:34:22;18.70;93.50
39919;DHT22;25589;51.552;13.424;2023-05-10T08:36:47;18.70;94.20
39919;DHT22;25589;51.552;13.424;2023-05-10T08:39:13;18.80;93.40
39919;DHT22;25589;51.552;13.424;2023-05-10T08:41:39;18.80;93.10
39919;DHT22;25589;51.552;13.424;2023-05-10T08:44:08;19.00;93.60
39919;DHT22;25589;51.552;13.424;2023-05-10T08:46:34;19.10;93.40
39919;DHT22;25589;51.552;13.424;2023-05-10T08:49:04;19.30;92.70
39919;DHT22;25589;51.552;13.424;2023-05-10T08:51:35;19.20;92.50
39919;DHT22;25589;51.552;13.424;2023-05-10T08:54:02;19.50;91.90
39919;DHT22;25589;51.552;13.424;2023-05-10T08:56:28;19.30;92.10
39919;DHT22;25589;51.552;13.424;2023-05-10T08:58:54;19.40;92.00
39919;DHT22;25589;51.552;13.424;2023-05-10T09:01:21;19.40;91.20
39919;DHT22;25589;51.552;13.424;2023-05-10T09:03:47;19.60;92.20
39919;DHT22;25589;51.552;13.424;2023-05-10T09:06:13;19.70;92.50
39919;DHT22;25589;51.552;13.424;2023-05-10T09:08:41;19.90;91.10
39919;DHT22;25589;51.552;13.424;2023-05-10T09:11:07;20.00;91.10
39919;DHT22;25589;51.552;13.424;2023-05-10T09:13:35;20.20;90.50
39919;DHT22;25589;51.552;13.424;2023-05-10T09:16:01;20.30;90.20
39919;DHT22;25589;51.552;13.424;2023-05-10T09:18:27;20.40;90.50
39919;DHT22;25589;51.552;13.424;2023-05-10T09:20:53;20.40;88.50
39919;DHT22;25589;51.552;13.424;2023-05-10T09:23:19;20.40;88.30
39919;DHT22;25589;51.552;13.424;2023-05-10T09:25:45;20.40;89.00
39919;DHT22;25589;51.552;13.424;2023-05-10T09:28:11;20.60;89.00
39919;DHT22;25589;51.552;13.424;2023-05-10T09:30:37;20.80;87.80
39919;DHT22;25589;51.552;13.424;2023-05-10T09:33:03;20.80;87.10
39919;DHT22;25589;51.552;13.424;2023-05-10T09:35:30;21.00;85.30
39919;DHT22;25589;51.552;13.424;2023-05-10T09:38:02;21.10;85.20
39919;DHT22;25589;51.552;13.424;2023-05-10T09:40:29;21.10;85.30
39919;DHT22;25589;51.552;13.424;2023-05-10T09:43:08;21.10;85.20
39919;DHT22;25589;51.552;13.424;2023-05-10T09:45:35;21.20;84.00
39919;DHT22;25589;51.552;13.424;2023-05-10T09:48:02;21.30;84.50
39919;DHT22;25589;51.552;13.424;2023-05-10T09:50:28;21.40;83.60
39919;DHT22;25589;51.552;13.424;2023-05-10T09:52:55;21.50;81.70
39919;DHT22;25589;51.552;13.424;2023-05-10T09:55:45;21.60;82.70
39919;DHT22;25589;51.552;13.424;2023-05-10T09:58:12;21.80;81.70
39919;DHT22;25589;51.552;13.424;2023-05-10T10:00:43;22.00;81.50
39919;DHT22;25589;51.552;13.424;2023-05-10T10:03:17;22.10;82.20
39919;DHT22;25589;51.552;13.424;2023-05-10T10:05:43;22.20;82.90
39919;DHT22;25589;51.552;13.424;2023-05-10T10:08:09;22.30;83.10
39919;DHT22;25589;51.552;13.424;2023-05-10T10:10:35;22.10;81.80
39919;DHT22;25589;51.552;13.424;2023-05-10T10:13:02;22.30;81.90
39919;DHT22;25589;51.552;13.424;2023-05-10T10:15:27;22.50;80.40
39919;DHT22;25589;51.552;13.424;2023-05-10T10:17:53;22.60;78.40
39919;DHT22;25589;51.552;13.424;2023-05-10T10:20:20;22.80;76.00
39919;DHT22;25589;51.552;13.424;2023-05-10T10:22:47;22.80;77.00
39919;DHT22;25589;51.552;13.424;2023-05-10T10:25:14;22.80;78.90
39919;DHT22;25589;51.552;13.424;2023-05-10T10:30:27;23.20;75.10
39919;DHT22;25589;51.552;13.424;2023-05-10T10:35:52;23.30;73.90
39919;DHT22;25589;51.552;13.424;2023-05-10T10:38:18;23.30;74.20
39919;DHT22;25589;51.552;13.424;2023-05-10T10:40:44;23.50;74.20
39919;DHT22;25589;51.552;13.424;2023-05-10T10:43:39;23.50;72.60
39919;DHT22;25589;51.552;13.424;2023-05-10T10:46:12;23.60;72.40
39919;DHT22;25589;51.552;13.424;2023-05-10T10:48:38;23.80;71.50
39919;DHT22;25589;51.552;13.424;2023-05-10T10:51:04;24.00;71.80
39919;DHT22;25589;51.552;13.424;2023-05-10T10:53:30;24.10;70.70
39919;DHT22;25589;51.552;13.424;2023-05-10T10:56:12;24.40;70.10
39919;DHT22;25589;51.552;13.424;2023-05-10T10:58:39;24.50;70.50
39919;DHT22;25589;51.552;13.424;2023-05-10T11:03:37;24.90;68.70
39919;DHT22;25589;51.552;13.424;2023-05-10T11:06:03;25.00;67.10
39919;DHT22;25589;51.552;13.424;2023-05-10T11:08:30;24.90;67.00
39919;DHT22;25589;51.552;13.424;2023-05-10T11:13:43;24.80;66.30
39919;DHT22;25589;51.552;13.424;2023-05-10T11:16:25;25.10;64.60
39919;DHT22;25589;51.552;13.424;2023-05-10T11:19:11;25.20;63.40
39919;DHT22;25589;51.552;13.424;2023-05-10T11:21:51;25.20;66.00
39919;DHT22;25589;51.552;13.424;2023-05-10T11:24:36;25.00;64.60
39919;DHT22;25589;51.552;13.424;2023-05-10T11:27:02;25.10;64.80
39919;DHT22;25589;51.552;13.424;2023-05-10T11:29:28;25.20;64.10
39919;DHT22;25589;51.552;13.424;2023-05-10T11:31:57;25.30;64.30
39919;DHT22;25589;51.552;13.424;2023-05-10T11:34:28;25.10;65.00
39919;DHT22;25589;51.552;13.424;2023-05-10T11:36:56;25.20;65.60
39919;DHT22;25589;51.552;13.424;2023-05-10T11:39:29;25.40;63.30
39919;DHT22;25589;51.552;13.424;2023-05-10T11:41:55;25.40;62.20
39919;DHT22;25589;51.552;13.424;2023-05-10T11:44:21;25.40;61.80
39919;DHT22;25589;51.552;13.424;2023-05-10T11:46:46;25.60;64.10
39919;DHT22;25589;51.552;13.424;2023-05-10T11:49:12;25.70;62.10
39919;DHT22;25589;51.552;13.424;2023-05-10T11:51:38;25.90;61.20
39919;DHT22;25589;51.552;13.424;2023-05-10T11:54:10;26.10;60.90
39919;DHT22;25589;51.552;13.424;2023-05-10T11:56:37;26.00;59.20
39919;DHT22;25589;51.552;13.424;2023-05-10T11:59:03;25.80;59.40
39919;DHT22;25589;51.552;13.424;2023-05-10T12:01:29;25.90;59.90
39919;DHT22;25589;51.552;13.424;2023-05-10T12:03:57;25.90;59.20
39919;DHT22;25589;51.552;13.424;2023-05-10T12:06:30;25.90;58.70
39919;DHT22;25589;51.552;13.424;2023-05-10T12:08:56;25.70;59.40
39919;DHT22;25589;51.552;13.424;2023-05-10T12:11:25;25.60;60.30
39919;DHT22;25589;51.552;13.424;2023-05-10T12:13:51;25.50;60.90
39919;DHT22;25589;51.552;13.424;2023-05-10T12:16:19;25.40;61.70
39919;DHT22;25589;51.552;13.424;2023-05-10T12:18:45;25.40;61.70
39919;DHT22;25589;51.552;13.424;2023-05-10T12:21:13;25.40;61.30
39919;DHT22;25589;51.552;13.424;2023-05-10T12:23:40;25.30;65.50
39919;DHT22;25589;51.552;13.424;2023-05-10T12:26:09;25.40;66.20
39919;DHT22;25589;51.552;13.424;2023-05-10T12:28:35;25.70;62.50
39919;DHT22;25589;51.552;13.424;2023-05-10T12:31:01;25.70;66.30
39919;DHT22;25589;51.552;13.424;2023-05-10T12:33:26;25.80;66.00
39919;DHT22;25589;51.552;13.424;2023-05-10T12:35:54;26.00;66.00
39919;DHT22;25589;51.552;13.424;2023-05-10T12:38:34;26.10;69.60
39919;DHT22;25589;51.552;13.424;2023-05-10T12:41:01;26.30;67.60
39919;DHT22;25589;51.552;13.424;2023-05-10T12:43:27;26.30;68.20
39919;DHT22;25589;51.552;13.424;2023-05-10T12:45:53;26.20;68.10
39919;DHT22;25589;51.552;13.424;2023-05-10T12:48:18;25.90;68.80
39919;DHT22;25589;51.552;13.424;2023-05-10T12:50:45;25.60;72.90
39919;DHT22;25589;51.552;13.424;2023-05-10T12:53:11;25.10;76.20
39919;DHT22;25589;51.552;13.424;2023-05-10T12:55:36;24.90;78.40
39919;DHT22;25589;51.552;13.424;2023-05-10T12:58:02;24.60;79.20
39919;DHT22;25589;51.552;13.424;2023-05-10T13:00:27;24.30;80.90
39919;DHT22;25589;51.552;13.424;2023-05-10T13:02:54;24.30;81.30
39919;DHT22;25589;51.552;13.424;2023-05-10T13:05:19;24.70;81.30
39919;DHT22;25589;51.552;13.424;2023-05-10T13:07:45;24.90;80.00
39919;DHT22;25589;51.552;13.424;2023-05-10T13:10:10;25.00;80.70
39919;DHT22;25589;51.552;13.424;2023-05-10T13:12:36;25.10;80.50
39919;DHT22;25589;51.552;13.424;2023-05-10T13:15:02;25.10;80.40
39919;DHT22;25589;51.552;13.424;2023-05-10T13:17:28;25.20;80.00
39919;DHT22;25589;51.552;13.424;2023-05-10T13:19:54;25.20;81.40
39919;DHT22;25589;51.552;13.424;2023-05-10T13:22:20;25.10;80.40
39919;DHT22;25589;51.552;13.424;2023-05-10T13:24:45;25.10;82.00
39919;DHT22;25589;51.552;13.424;2023-05-10T13:27:11;24.80;84.00
39919;DHT22;25589;51.552;13.424;2023-05-10T13:29:37;24.10;83.70
39919;DHT22;25589;51.552;13.424;2023-05-10T13:32:02;23.70;87.50
39919;DHT22;25589;51.552;13.424;2023-05-10T13:34:29;23.60;88.40
39919;DHT22;25589;51.552;13.424;2023-05-10T13:36:55;23.80;88.30
39919;DHT22;25589;51.552;13.424;2023-05-10T13:39:21;23.70;87.50
39919;DHT22;25589;51.552;13.424;2023-05-10T13:41:47;23.80;87.20
39919;DHT22;25589;51.552;13.424;2023-05-10T13:44:13;24.10;87.20
39919;DHT22;25589;51.552;13.424;2023-05-10T13:46:40;23.70;87.00
39919;DHT22;25589;51.552;13.424;2023-05-10T13:49:06;23.60;88.00
39919;DHT22;25589;51.552;13.424;2023-05-10T13:51:33;24.00;89.80
39919;DHT22;25589;51.552;13.424;2023-05-10T13:53:59;24.40;86.60
39919;DHT22;25589;51.552;13.424;2023-05-10T13:56:24;24.70;85.80
39919;DHT22;25589;51.552;13.424;2023-05-10T13:58:50;24.50;85.10
39919;DHT22;25589;51.552;13.424;2023-05-10T14:01:15;24.70;83.70
39919;DHT22;25589;51.552;13.424;2023-05-10T14:03:41;25.20;81.60
39919;DHT22;25589;51.552;13.424;2023-05-10T14:06:07;25.50;80.90
39919;DHT22;25589;51.552;13.424;2023-05-10T14:08:33;25.60;81.80
39919;DHT22;25589;51.552;13.424;2023-05-10T14:10:59;25.50;81.80
39919;DHT22;25589;51.552;13.424;2023-05-10T14:13:25;25.30;82.90
39919;DHT22;25589;51.552;13.424;2023-05-10T14:15:52;25.00;84.30
39919;DHT22;25589;51.552;13.424;2023-05-10T14:18:17;25.10;84.60
39919;DHT22;25589;51.552;13.424;2023-05-10T14:20:43;24.90;85.10
39919;DHT22;25589;51.552;13.424;2023-05-10T14:23:08;24.90;84.50
39919;DHT22;25589;51.552;13.424;2023-05-10T14:25:34;24.80;85.30
39919;DHT22;25589;51.552;13.424;2023-05-10T14:28:00;24.60;85.00
39919;DHT22;25589;51.552;13.424;2023-05-10T14:30:26;24.40;84.70
39919;DHT22;25589;51.552;13.424;2023-05-10T14:32:51;24.30;86.00
39919;DHT22;25589;51.552;13.424;2023-05-10T14:35:19;24.10;85.90
39919;DHT22;25589;51.552;13.424;2023-05-10T14:37:45;23.90;87.80
39919;DHT22;25589;51.552;13.424;2023-05-10T14:40:11;23.90;88.70
39919;DHT22;25589;51.552;13.424;2023-05-10T14:42:37;24.10;88.80
39919;DHT22;25589;51.552;13.424;2023-05-10T14:45:03;24.10;86.70
39919;DHT22;25589;51.552;13.424;2023-05-10T14:47:29;24.10;86.50
39919;DHT22;25589;51.552;13.424;2023-05-10T14:49:54;24.10;87.50
39919;DHT22;25589;51.552;13.424;2023-05-10T14:52:20;24.20;87.30
39919;DHT22;25589;51.552;13.424;2023-05-10T14:54:45;24.30;86.40
39919;DHT22;25589;51.552;13.424;2023-05-10T14:57:11;24.50;85.60
39919;DHT22;25589;51.552;13.424;2023-05-10T14:59:37;24.50;85.90
39919;DHT22;25589;51.552;13.424;2023-05-10T15:02:02;24.40;85.90
39919;DHT22;25589;51.552;13.424;2023-05-10T15:04:29;24.50;87.20
39919;DHT22;25589;51.552;13.424;2023-05-10T15:06:55;24.70;86.90
39919;DHT22;25589;51.552;13.424;2023-05-10T15:09:25;24.90;87.00
39919;DHT22;25589;51.552;13.424;2023-05-10T15:11:51;25.00;86.50
39919;DHT22;25589;51.552;13.424;2023-05-10T15:14:16;25.30;84.40
39919;DHT22;25589;51.552;13.424;2023-05-10T15:16:42;25.40;83.60
39919;DHT22;25589;51.552;13.424;2023-05-10T15:19:07;25.50;83.30
39919;DHT22;25589;51.552;13.424;2023-05-10T15:21:33;25.80;83.40
39919;DHT22;25589;51.552;13.424;2023-05-10T15:24:05;25.70;83.50
39919;DHT22;25589;51.552;13.424;2023-05-10T15:26:30;25.40;84.70
39919;DHT22;25589;51.552;13.424;2023-05-10T15:28:56;25.00;84.90
39919;DHT22;25589;51.552;13.424;2023-05-10T15:31:21;25.00;85.80
39919;DHT22;25589;51.552;13.424;2023-05-10T15:33:47;24.80;85.60
39919;DHT22;25589;51.552;13.424;2023-05-10T15:36:13;25.10;85.40
39919;DHT22;25589;51.552;13.424;2023-05-10T15:38:38;25.00;85.40
39919;DHT22;25589;51.552;13.424;2023-05-10T15:41:04;24.90;85.10
39919;DHT22;25589;51.552;13.424;2023-05-10T15:43:29;24.80;84.60
39919;DHT22;25589;51.552;13.424;2023-05-10T15:45:57;24.80;85.20